Time;durP1;ratioP1;P1;durP2;ratioP2;P2;SDS_P1;SDS_P2;PMS_P1;PMS_P2;Temp;Humidity;BMP_temperature;BMP_pressure;BME280_temperature;BME280_humidity;BME280_pressure;Samples;Min_cycle;Max_cycle;Signal;HPM_P1;HPM_P2
2022/10/17 00:01:24;;;;;;;8.35;7.55;;;23.10;99.90;;;;;;6016082;29;88749;-64
2022/10/17 00:04:26;;;;;;;7.72;7.03;;;23.10;99.90;;;;;;6015789;29;88996;-64
2022/10/17 00:07:30;;;;;;;7.78;7.07;;;23.10;99.90;;;;;;6015474;29;88800;-64
2022/10/17 00:10:32;;;;;;;8.45;7.45;;;23.10;99.90;;;;;;6015619;29;91500;-65
2022/10/17 00:13:35;;;;;;;8.65;7.82;;;23.10;99.90;;;;;;6016546;29;89111;-64
2022/10/17 00:16:37;;;;;;;8.77;7.88;;;23.10;99.90;;;;;;6013091;29;89139;-64
2022/10/17 00:19:39;;;;;;;8.20;7.40;;;23.10;99.90;;;;;;6015172;29;89079;-65
2022/10/17 00:22:43;;;;;;;8.52;7.72;;;23.10;99.90;;;;;;6014825;29;89074;-65
2022/10/17 00:25:45;;;;;;;9.20;8.32;;;23.00;99.90;;;;;;6016383;29;89119;-65
2022/10/17 00:28:47;;;;;;;8.57;7.72;;;23.10;99.90;;;;;;6015162;29;88133;-64
2022/10/17 00:31:49;;;;;;;9.25;8.35;;;23.10;99.90;;;;;;6015556;29;88403;-65
2022/10/17 00:34:51;;;;;;;9.15;8.25;;;23.10;99.90;;;;;;6012556;29;89068;-64
2022/10/17 00:37:55;;;;;;;9.43;8.52;;;23.10;99.90;;;;;;6035117;29;89072;-65
2022/10/17 00:40:57;;;;;;;9.73;8.45;;;23.10;99.90;;;;;;6023566;29;89955;-65
2022/10/17 00:44:01;;;;;;;9.57;8.57;;;23.00;99.90;;;;;;6018499;29;89240;-64
2022/10/17 00:47:07;;;;;;;10.35;9.32;;;23.10;99.90;;;;;;6012168;29;87775;-65
2022/10/17 00:50:11;;;;;;;9.77;8.85;;;23.10;99.90;;;;;;6013992;29;89056;-65
2022/10/17 00:53:15;;;;;;;9.35;8.40;;;23.10;99.90;;;;;;6016982;29;89332;-65
2022/10/17 00:56:19;;;;;;;10.00;9.05;;;23.10;99.90;;;;;;6003500;29;89024;-64
2022/10/17 00:59:23;;;;;;;10.35;9.27;;;23.00;99.90;;;;;;6014549;29;89065;-65
2022/10/17 01:02:25;;;;;;;10.18;9.20;;;23.00;99.90;;;;;;6015380;29;88380;-64
2022/10/17 01:05:27;;;;;;;10.23;9.27;;;23.00;99.90;;;;;;6014491;29;89498;-64
2022/10/17 01:08:30;;;;;;;10.57;9.57;;;23.10;99.90;;;;;;6014277;29;89065;-65
2022/10/17 01:11:39;;;;;;;10.68;9.68;;;23.00;99.90;;;;;;6026306;29;90163;-65
2022/10/17 01:14:54;;;;;;;10.73;9.73;;;23.00;99.90;;;;;;6013293;29;89153;-65
2022/10/17 01:18:10;;;;;;;10.68;9.68;;;23.00;99.90;;;;;;6014011;29;89141;-64
2022/10/17 01:21:39;;;;;;;11.13;10.10;;;23.00;99.90;;;;;;6014579;29;89194;-65
2022/10/17 01:25:16;;;;;;;11.27;10.18;;;23.00;99.90;;;;;;6013622;29;89158;-65
2022/10/17 01:28:38;;;;;;;11.32;10.20;;;23.00;99.90;;;;;;6004173;29;90287;-64
2022/10/17 01:31:46;;;;;;;10.90;9.90;;;23.00;99.90;;;;;;6014110;29;89086;-65
2022/10/17 01:34:57;;;;;;;11.90;10.75;;;23.00;99.90;;;;;;6013985;29;88496;-64
2022/10/17 01:38:05;;;;;;;11.45;10.43;;;23.00;99.90;;;;;;6012641;29;89212;-65
2022/10/17 01:41:14;;;;;;;11.68;10.57;;;23.00;99.90;;;;;;6012671;29;89133;-64
2022/10/17 01:44:23;;;;;;;11.95;10.77;;;23.00;99.90;;;;;;6024262;29;90038;-64
2022/10/17 01:47:30;;;;;;;12.40;11.20;;;23.00;99.90;;;;;;6013600;28;89086;-65
2022/10/17 01:50:35;;;;;;;12.13;10.93;;;23.00;99.90;;;;;;6013353;29;88031;-64
2022/10/17 01:53:42;;;;;;;12.65;11.45;;;23.00;99.90;;;;;;6012839;29;89429;-64
2022/10/17 01:56:48;;;;;;;12.60;11.40;;;23.00;99.90;;;;;;6010823;29;89249;-64
2022/10/17 01:59:53;;;;;;;12.25;11.05;;;23.00;99.90;;;;;;6017096;29;89103;-65
2022/10/17 02:03:01;;;;;;;13.43;12.13;;;23.00;99.90;;;;;;6016028;29;89185;-64
2022/10/17 02:06:03;;;;;;;12.75;11.55;;;23.00;99.90;;;;;;6014529;29;87244;-65
2022/10/17 02:09:17;;;;;;;12.10;10.93;;;23.00;99.90;;;;;;6012813;29;89153;-65
2022/10/17 02:12:35;;;;;;;12.50;11.38;;;23.00;99.90;;;;;;6017594;29;89080;-65
2022/10/17 02:15:59;;;;;;;12.65;11.45;;;23.00;99.90;;;;;;6016523;29;90048;-64
2022/10/17 02:19:30;;;;;;;12.80;11.65;;;23.00;99.90;;;;;;6029569;29;89135;-65
2022/10/17 02:22:39;;;;;;;12.23;11.02;;;22.90;99.90;;;;;;6021087;29;89198;-64
2022/10/17 02:25:46;;;;;;;13.23;12.00;;;22.90;99.90;;;;;;6022743;29;89431;-64
2022/10/17 02:28:56;;;;;;;13.38;12.18;;;23.00;99.90;;;;;;6018392;28;87824;-64
2022/10/17 02:32:02;;;;;;;13.65;12.45;;;23.00;99.90;;;;;;6016686;29;88085;-65
2022/10/17 02:35:09;;;;;;;13.40;12.10;;;23.00;99.90;;;;;;6027285;29;89209;-65
2022/10/17 02:38:13;;;;;;;13.20;11.90;;;23.00;99.90;;;;;;6017725;29;88350;-65
2022/10/17 02:41:18;;;;;;;13.57;12.38;;;23.00;99.90;;;;;;6005105;29;88023;-65
2022/10/17 02:44:21;;;;;;;12.82;11.63;;;23.00;99.90;;;;;;6027907;29;88030;-65
2022/10/17 02:47:27;;;;;;;13.23;12.02;;;23.00;99.90;;;;;;6015483;29;90254;-65
2022/10/17 02:50:38;;;;;;;14.13;12.82;;;22.90;99.90;;;;;;6015218;29;89118;-65
2022/10/17 02:53:49;;;;;;;13.15;11.90;;;23.00;99.90;;;;;;6016043;29;88010;-65
2022/10/17 02:56:55;;;;;;;13.38;12.07;;;22.90;99.90;;;;;;6016659;29;89198;-65
2022/10/17 02:59:59;;;;;;;13.13;11.88;;;23.00;99.90;;;;;;6016534;29;89062;-65
2022/10/17 03:03:01;;;;;;;13.10;11.82;;;23.00;99.90;;;;;;6016267;29;89103;-65
2022/10/17 03:06:04;;;;;;;13.30;12.10;;;23.00;99.90;;;;;;6015976;29;89067;-65
2022/10/17 03:09:07;;;;;;;13.73;12.43;;;23.00;99.90;;;;;;6014839;29;88677;-65
2022/10/17 03:12:09;;;;;;;13.40;12.20;;;22.90;99.90;;;;;;6016922;29;87981;-65
2022/10/17 03:15:12;;;;;;;13.40;12.20;;;23.00;99.90;;;;;;6016512;29;88075;-64
2022/10/17 03:18:14;;;;;;;13.30;12.00;;;22.90;99.90;;;;;;6015308;29;90143;-65
2022/10/17 03:21:17;;;;;;;13.45;12.15;;;22.90;99.90;;;;;;6015956;29;89178;-65
2022/10/17 03:24:19;;;;;;;13.75;12.35;;;22.90;99.90;;;;;;6014677;29;89088;-64
2022/10/17 03:27:21;;;;;;;13.90;12.60;;;22.90;99.90;;;;;;6027184;29;89077;-64
2022/10/17 03:30:23;;;;;;;13.85;12.55;;;23.00;99.90;;;;;;6015408;29;89089;-64
2022/10/17 03:33:25;;;;;;;14.23;12.93;;;22.90;99.90;;;;;;6013491;29;89042;-65
2022/10/17 03:36:29;;;;;;;14.07;12.60;;;22.90;99.90;;;;;;6015098;29;89112;-65
2022/10/17 03:39:31;;;;;;;13.30;12.10;;;22.90;99.90;;;;;;6015864;29;88741;-65
2022/10/17 03:42:33;;;;;;;13.65;12.35;;;22.90;99.90;;;;;;6015165;29;89039;-65
2022/10/17 03:45:35;;;;;;;14.25;12.85;;;22.90;99.90;;;;;;6023704;29;87877;-64
2022/10/17 03:48:37;;;;;;;13.65;12.35;;;22.90;99.90;;;;;;6015597;29;90017;-64
2022/10/17 03:51:41;;;;;;;13.27;12.07;;;22.90;99.90;;;;;;6015124;29;89069;-65
2022/10/17 03:54:43;;;;;;;13.27;12.07;;;22.90;99.90;;;;;;6014793;29;89081;-65
2022/10/17 03:57:45;;;;;;;12.93;11.73;;;23.00;99.90;;;;;;6013205;29;89707;-65
2022/10/17 04:00:47;;;;;;;13.05;11.85;;;23.00;99.90;;;;;;6015760;29;87829;-65
2022/10/17 04:03:49;;;;;;;12.73;11.52;;;23.00;99.90;;;;;;6015086;29;89275;-65
2022/10/17 04:06:52;;;;;;;13.30;12.10;;;23.00;99.90;;;;;;6013513;29;89207;-64
2022/10/17 04:09:54;;;;;;;13.05;11.85;;;23.00;99.90;;;;;;6015642;29;86306;-65
2022/10/17 04:12:56;;;;;;;14.18;12.88;;;23.00;99.90;;;;;;6005878;29;89116;-65
2022/10/17 04:16:00;;;;;;;13.57;12.38;;;23.00;99.90;;;;;;6016002;29;89052;-65
2022/10/17 04:19:03;;;;;;;13.40;12.20;;;23.00;99.90;;;;;;6013867;29;88958;-65
2022/10/17 04:22:07;;;;;;;13.77;12.48;;;23.00;99.90;;;;;;6014522;29;88828;-65
2022/10/17 04:25:09;;;;;;;13.70;12.45;;;23.00;99.90;;;;;;6002309;29;89234;-65
2022/10/17 04:28:11;;;;;;;13.35;12.15;;;23.00;99.90;;;;;;6015104;29;88216;-65
2022/10/17 04:31:14;;;;;;;14.07;12.77;;;23.00;99.90;;;;;;6014190;29;89312;-65
2022/10/17 04:34:16;;;;;;;13.18;11.98;;;23.00;99.90;;;;;;6012224;29;89465;-65
2022/10/17 04:37:20;;;;;;;13.32;12.13;;;23.00;99.90;;;;;;6014682;29;89121;-65
2022/10/17 04:40:22;;;;;;;12.60;11.50;;;23.00;99.90;;;;;;6015275;29;88440;-65
2022/10/17 04:43:24;;;;;;;13.00;11.77;;;23.00;99.90;;;;;;6016586;29;89051;-65
2022/10/17 04:46:26;;;;;;;13.10;11.90;;;23.10;99.90;;;;;;6022085;29;89058;-65
2022/10/17 04:49:28;;;;;;;12.80;11.63;;;23.10;99.90;;;;;;6014027;29;90048;-65
2022/10/17 04:52:31;;;;;;;12.85;11.65;;;23.00;99.90;;;;;;6014006;29;89111;-65
2022/10/17 04:55:38;;;;;;;13.20;12.00;;;23.10;99.90;;;;;;5998366;29;89042;-65
2022/10/17 04:58:42;;;;;;;12.30;11.20;;;23.10;99.90;;;;;;6010705;29;88995;-66
2022/10/17 05:01:44;;;;;;;12.20;11.10;;;23.10;99.90;;;;;;6014708;29;89143;-65
2022/10/17 05:04:46;;;;;;;13.10;11.90;;;23.10;99.90;;;;;;6013476;29;89277;-65
2022/10/17 05:07:49;;;;;;;13.20;11.90;;;23.10;99.90;;;;;;6013679;29;89061;-65
2022/10/17 05:10:51;;;;;;;13.50;12.20;;;23.10;99.90;;;;;;6013988;29;87424;-64
2022/10/17 05:13:54;;;;;;;13.23;12.02;;;23.20;99.90;;;;;;6012559;29;89221;-64
2022/10/17 05:16:56;;;;;;;12.98;11.77;;;23.20;99.90;;;;;;6011908;29;89054;-64
2022/10/17 05:19:58;;;;;;;13.15;11.85;;;23.20;99.90;;;;;;6009309;29;90195;-64
2022/10/17 05:23:02;;;;;;;13.13;11.93;;;23.30;99.90;;;;;;6011125;29;89216;-64
2022/10/17 05:26:04;;;;;;;13.00;11.75;;;23.20;99.90;;;;;;6013703;29;89385;-65
2022/10/17 05:29:07;;;;;;;12.20;11.10;;;23.30;99.90;;;;;;6024396;29;89050;-64
2022/10/17 05:32:09;;;;;;;13.23;12.05;;;23.30;99.90;;;;;;6011801;29;89080;-65
2022/10/17 05:35:11;;;;;;;12.20;11.10;;;23.30;99.90;;;;;;6011812;29;89159;-65
2022/10/17 05:38:14;;;;;;;12.80;11.60;;;23.30;99.90;;;;;;6013007;29;88913;-64
2022/10/17 05:41:16;;;;;;;12.57;11.48;;;23.30;99.90;;;;;;6009342;29;87330;-64
2022/10/17 05:44:18;;;;;;;12.63;11.52;;;23.30;99.90;;;;;;6024763;29;89077;-65
2022/10/17 05:47:20;;;;;;;12.35;11.25;;;23.30;99.90;;;;;;6013985;28;89285;-65
2022/10/17 05:50:24;;;;;;;12.32;11.23;;;23.40;99.90;;;;;;6011813;29;90044;-65
2022/10/17 05:53:30;;;;;;;12.23;11.13;;;23.30;99.90;;;;;;6010553;29;87942;-65
2022/10/17 05:56:32;;;;;;;12.18;11.07;;;23.30;99.90;;;;;;6012245;29;89142;-65
2022/10/17 05:59:34;;;;;;;11.82;10.77;;;23.30;99.90;;;;;;6012877;29;88094;-65
2022/10/17 06:02:36;;;;;;;12.50;11.40;;;23.30;99.90;;;;;;6017022;29;89066;-65
2022/10/17 06:05:38;;;;;;;12.02;10.93;;;23.30;99.90;;;;;;6013137;29;89050;-65
2022/10/17 06:08:41;;;;;;;12.80;11.60;;;23.30;99.90;;;;;;6004674;29;89179;-65
2022/10/17 06:11:43;;;;;;;11.85;10.82;;;23.30;99.90;;;;;;6012311;29;88322;-65
2022/10/17 06:14:45;;;;;;;11.60;10.60;;;23.30;99.90;;;;;;6012690;29;89464;-65
2022/10/17 06:17:47;;;;;;;11.93;10.82;;;23.30;99.90;;;;;;6013337;29;89031;-65
2022/10/17 06:20:49;;;;;;;11.95;10.93;;;23.30;99.90;;;;;;6011572;29;90091;-64
2022/10/17 06:23:53;;;;;;;11.82;10.73;;;23.30;99.90;;;;;;6012376;29;89498;-65
2022/10/17 06:26:55;;;;;;;11.73;10.73;;;23.30;99.90;;;;;;6013192;29;89232;-65
2022/10/17 06:29:57;;;;;;;11.23;10.23;;;23.40;99.90;;;;;;6011349;29;91072;-65
2022/10/17 06:33:00;;;;;;;11.77;10.77;;;23.30;99.90;;;;;;6011976;29;90635;-65
2022/10/17 06:36:02;;;;;;;11.38;10.38;;;23.40;99.90;;;;;;6011089;29;89539;-65
2022/10/17 06:39:05;;;;;;;11.70;10.68;;;23.30;99.90;;;;;;6011592;29;88805;-65
2022/10/17 06:42:07;;;;;;;11.63;10.63;;;23.30;99.90;;;;;;6012715;29;88670;-65
2022/10/17 06:45:10;;;;;;;11.20;10.18;;;23.30;99.90;;;;;;6027096;29;88044;-65
2022/10/17 06:48:12;;;;;;;11.32;10.32;;;23.30;99.90;;;;;;6016704;29;89052;-65
2022/10/17 06:51:14;;;;;;;11.68;10.55;;;23.30;99.90;;;;;;6013048;29;90149;-65
2022/10/17 06:54:18;;;;;;;11.80;10.65;;;23.30;99.90;;;;;;6018452;29;89502;-65
2022/10/17 06:57:20;;;;;;;11.85;10.80;;;23.40;99.90;;;;;;6022551;29;89214;-65
2022/10/17 07:00:22;;;;;;;11.13;10.18;;;23.40;99.90;;;;;;6022445;29;88229;-65
2022/10/17 07:03:24;;;;;;;11.43;10.30;;;23.30;99.90;;;;;;6030609;28;89303;-65
2022/10/17 07:06:26;;;;;;;10.88;9.88;;;23.30;99.90;;;;;;6016300;29;89353;-65
2022/10/17 07:09:30;;;;;;;11.38;10.38;;;23.30;99.90;;;;;;6028037;29;88973;-65
2022/10/17 07:12:33;;;;;;;11.18;10.15;;;23.30;99.90;;;;;;6015436;29;90628;-65
2022/10/17 07:15:37;;;;;;;10.80;9.80;;;23.30;99.90;;;;;;6014931;29;88911;-65
2022/10/17 07:18:39;;;;;;;10.57;9.57;;;23.30;99.90;;;;;;6016317;29;89137;-65
2022/10/17 07:21:41;;;;;;;10.93;9.95;;;23.30;99.90;;;;;;6015146;29;89742;-65
2022/10/17 07:24:45;;;;;;;10.85;9.95;;;23.30;99.90;;;;;;6015121;29;88974;-65
2022/10/17 07:27:48;;;;;;;10.60;9.70;;;23.40;99.90;;;;;;6026318;29;89057;-65
2022/10/17 07:30:50;;;;;;;10.82;9.82;;;23.40;99.90;;;;;;6014935;29;89168;-65
2022/10/17 07:33:52;;;;;;;10.25;9.35;;;23.40;99.90;;;;;;6015170;29;89454;-65
2022/10/17 07:36:55;;;;;;;10.27;9.38;;;23.40;99.90;;;;;;6015146;29;88325;-65
2022/10/17 07:39:58;;;;;;;10.45;9.55;;;23.40;99.90;;;;;;6015604;29;88509;-65
2022/10/17 07:43:00;;;;;;;10.95;9.90;;;23.40;99.90;;;;;;6016613;29;88406;-66
2022/10/17 07:46:04;;;;;;;10.60;9.68;;;23.40;99.90;;;;;;6021247;28;89780;-65
2022/10/17 07:49:06;;;;;;;10.20;9.20;;;23.40;99.90;;;;;;6013782;29;89459;-65
2022/10/17 07:52:09;;;;;;;10.13;9.10;;;23.40;99.90;;;;;;6013713;29;90026;-66
2022/10/17 07:55:13;;;;;;;10.25;9.35;;;23.40;99.90;;;;;;6015187;29;89145;-65
2022/10/17 07:58:16;;;;;;;10.57;9.63;;;23.40;99.90;;;;;;6015892;29;87746;-65
2022/10/17 08:01:18;;;;;;;9.73;8.93;;;23.40;99.90;;;;;;6015177;29;87967;-65
2022/10/17 08:04:20;;;;;;;9.50;8.70;;;23.40;99.90;;;;;;6027431;29;89408;-65
2022/10/17 08:07:22;;;;;;;9.93;9.02;;;23.40;99.90;;;;;;6016507;29;89037;-65
2022/10/17 08:10:28;;;;;;;9.63;8.82;;;23.40;99.90;;;;;;6015119;29;89197;-66
2022/10/17 08:13:30;;;;;;;9.20;8.45;;;23.40;99.90;;;;;;6016267;29;88246;-66
2022/10/17 08:16:32;;;;;;;9.48;8.68;;;23.40;99.90;;;;;;6013609;29;90205;-66
2022/10/17 08:19:34;;;;;;;9.93;9.02;;;23.40;99.90;;;;;;6013838;29;89070;-66
2022/10/17 08:22:36;;;;;;;10.45;9.55;;;23.40;99.90;;;;;;6012689;29;90048;-65
2022/10/17 08:25:39;;;;;;;9.93;9.02;;;23.40;99.90;;;;;;6015080;29;88033;-66
2022/10/17 08:28:42;;;;;;;9.38;8.57;;;23.40;99.90;;;;;;6014370;29;89130;-65
2022/10/17 08:31:44;;;;;;;9.95;9.05;;;23.40;99.90;;;;;;6014413;29;89261;-66
2022/10/17 08:34:46;;;;;;;10.13;9.23;;;23.40;99.90;;;;;;6014018;29;89464;-65
2022/10/17 08:37:48;;;;;;;9.40;8.60;;;23.40;99.90;;;;;;6014794;29;89122;-65
2022/10/17 08:40:51;;;;;;;9.30;8.50;;;23.40;99.90;;;;;;6014170;29;89019;-65
2022/10/17 08:44:05;;;;;;;9.63;8.73;;;23.40;99.90;;;;;;6019181;29;87144;-66
2022/10/17 08:47:12;;;;;;;8.77;8.07;;;23.40;99.90;;;;;;6014430;29;89174;-65
2022/10/17 08:50:22;;;;;;;9.05;8.32;;;23.40;99.90;;;;;;6014297;29;89311;-65
2022/10/17 08:53:29;;;;;;;9.00;8.20;;;23.50;99.90;;;;;;6013014;29;90317;-65
2022/10/17 08:56:38;;;;;;;8.63;7.93;;;23.40;99.90;;;;;;6014386;29;89094;-65
2022/10/17 08:59:41;;;;;;;9.25;8.45;;;23.40;99.90;;;;;;6016605;29;89742;-65
2022/10/17 09:02:54;;;;;;;9.40;8.50;;;23.50;99.90;;;;;;6024822;29;89045;-65
2022/10/17 09:06:09;;;;;;;9.07;8.35;;;23.40;99.90;;;;;;6014248;29;89502;-65
2022/10/17 09:09:24;;;;;;;9.10;8.35;;;23.50;99.90;;;;;;6012757;29;88070;-65
2022/10/17 09:12:38;;;;;;;9.73;8.82;;;23.40;99.90;;;;;;6011652;28;89173;-66
2022/10/17 09:16:11;;;;;;;8.90;8.10;;;23.50;99.90;;;;;;6014313;29;88834;-65
2022/10/17 09:19:19;;;;;;;9.20;8.40;;;23.40;99.90;;;;;;6010888;29;88418;-65
2022/10/17 09:22:26;;;;;;;9.02;8.23;;;23.50;99.90;;;;;;6006550;29;89537;-66
2022/10/17 09:25:29;;;;;;;9.30;8.50;;;23.50;99.90;;;;;;6018844;29;90162;-66
2022/10/17 09:28:35;;;;;;;8.85;8.07;;;23.50;99.90;;;;;;6010718;29;89433;-65
2022/10/17 09:31:45;;;;;;;8.93;8.15;;;23.50;99.90;;;;;;6012958;29;89285;-65
2022/10/17 09:34:47;;;;;;;8.80;8.10;;;23.50;99.90;;;;;;6013786;29;89031;-65
2022/10/17 09:37:50;;;;;;;9.27;8.48;;;23.50;99.90;;;;;;6012460;29;89261;-65
2022/10/17 09:40:55;;;;;;;8.60;7.80;;;23.40;99.90;;;;;;6012407;29;89276;-65
2022/10/17 09:44:08;;;;;;;8.40;7.70;;;23.50;99.90;;;;;;6022932;29;89154;-66
2022/10/17 09:47:22;;;;;;;8.48;7.78;;;23.50;99.90;;;;;;6016551;28;88664;-65
2022/10/17 09:50:27;;;;;;;8.30;7.60;;;23.50;99.90;;;;;;6013384;29;89197;-66
2022/10/17 09:53:34;;;;;;;8.82;8.05;;;23.50;99.90;;;;;;6012938;29;89126;-65
2022/10/17 09:56:58;;;;;;;8.52;7.80;;;23.50;99.90;;;;;;6011607;29;90140;-65
2022/10/17 10:00:04;;;;;;;8.80;8.00;;;23.50;99.90;;;;;;6017697;29;89104;-65
2022/10/17 10:03:14;;;;;;;8.95;8.20;;;23.50;99.90;;;;;;6020193;29;89017;-65
2022/10/17 10:06:17;;;;;;;8.27;7.55;;;23.50;99.90;;;;;;6012970;29;89465;-65
2022/10/17 10:09:23;;;;;;;9.07;8.27;;;23.50;99.90;;;;;;6012203;29;89154;-66
2022/10/17 10:12:31;;;;;;;8.77;7.97;;;23.50;99.90;;;;;;6012333;29;89541;-65
2022/10/17 10:15:39;;;;;;;8.90;8.10;;;23.50;99.90;;;;;;6010272;29;89150;-65
2022/10/17 10:18:42;;;;;;;10.20;9.15;;;23.50;99.90;;;;;;6014237;29;88263;-65
2022/10/17 10:21:55;;;;;;;9.30;8.50;;;23.60;99.90;;;;;;6017798;29;89105;-64
2022/10/17 10:25:15;;;;;;;9.77;8.88;;;23.60;99.90;;;;;;6023671;29;89118;-65
2022/10/17 10:28:17;;;;;;;9.38;8.57;;;23.60;99.90;;;;;;6015409;29;90437;-65
2022/10/17 10:31:31;;;;;;;9.40;8.50;;;23.60;99.90;;;;;;6014976;29;89569;-65
2022/10/17 10:34:35;;;;;;;9.77;8.88;;;23.60;99.90;;;;;;6015592;29;89069;-64
2022/10/17 10:37:41;;;;;;;9.38;8.57;;;23.70;99.90;;;;;;6014918;29;90489;-64
2022/10/17 10:40:47;;;;;;;9.50;8.60;;;23.60;99.90;;;;;;6016995;29;89245;-64
2022/10/17 10:43:51;;;;;;;9.55;8.73;;;23.60;99.90;;;;;;6021526;29;89121;-65
2022/10/17 10:47:09;;;;;;;10.85;8.95;;;23.60;99.90;;;;;;6016930;29;89231;-64
2022/10/17 10:50:24;;;;;;;12.13;9.10;;;23.70;99.90;;;;;;6001284;29;90057;-63
2022/10/17 10:53:38;;;;;;;11.85;9.10;;;23.70;99.90;;;;;;6016306;29;89149;-64
2022/10/17 10:56:43;;;;;;;10.05;9.00;;;23.70;99.90;;;;;;6016021;29;89096;-64
2022/10/17 10:59:54;;;;;;;9.70;8.70;;;23.70;99.90;;;;;;6017084;29;89985;-64
2022/10/17 11:03:09;;;;;;;9.30;8.40;;;23.70;99.90;;;;;;6016019;29;89079;-64
2022/10/17 11:06:16;;;;;;;9.82;8.82;;;23.70;99.90;;;;;;6016578;29;89094;-64
2022/10/17 11:09:30;;;;;;;9.27;8.20;;;23.70;99.90;;;;;;6013730;29;89083;-64
2022/10/17 11:12:36;;;;;;;10.68;8.82;;;23.70;99.90;;;;;;6016544;29;87971;-64
2022/10/17 11:15:45;;;;;;;9.45;8.52;;;23.70;99.90;;;;;;6015005;29;88969;-64
2022/10/17 11:18:53;;;;;;;10.27;8.10;;;23.70;99.90;;;;;;6016838;29;89166;-64
2022/10/17 11:22:05;;;;;;;9.20;8.30;;;23.60;99.90;;;;;;6016975;29;88399;-64
2022/10/17 11:25:22;;;;;;;9.32;8.48;;;23.70;99.90;;;;;;6015953;29;89160;-65
2022/10/17 11:28:25;;;;;;;8.95;8.10;;;23.60;99.90;;;;;;6015397;29;89017;-64
2022/10/17 11:31:32;;;;;;;9.40;8.38;;;23.70;99.90;;;;;;6016732;29;90142;-64
2022/10/17 11:34:42;;;;;;;9.35;8.45;;;23.70;99.90;;;;;;6014534;29;89241;-64
2022/10/17 11:37:50;;;;;;;9.43;8.52;;;23.60;99.90;;;;;;6014825;29;89172;-64
2022/10/17 11:40:55;;;;;;;9.02;8.23;;;23.60;99.90;;;;;;6015754;29;88923;-64
2022/10/17 11:44:03;;;;;;;8.68;7.93;;;23.70;99.90;;;;;;6024716;29;89003;-64
2022/10/17 11:47:11;;;;;;;8.63;7.82;;;23.70;99.90;;;;;;6017853;29;88012;-64
2022/10/17 11:50:28;;;;;;;9.32;8.43;;;23.60;99.90;;;;;;6015703;29;89127;-64
2022/10/17 11:53:43;;;;;;;9.18;8.27;;;23.60;99.90;;;;;;6015912;29;88546;-64
2022/10/17 11:56:51;;;;;;;8.55;7.75;;;23.60;99.90;;;;;;6015761;29;89134;-64
2022/10/17 12:00:00;;;;;;;9.00;8.20;;;23.70;99.90;;;;;;6019712;29;89220;-64
2022/10/17 12:03:25;;;;;;;9.23;8.43;;;23.60;99.90;;;;;;6019274;29;90135;-64
2022/10/17 12:06:42;;;;;;;8.73;7.93;;;23.70;99.90;;;;;;6011168;29;87992;-64
2022/10/17 12:09:51;;;;;;;9.10;8.20;;;23.60;99.90;;;;;;6010210;29;89393;-64
2022/10/17 12:12:53;;;;;;;9.15;8.35;;;23.70;99.90;;;;;;6009966;29;88050;-64
2022/10/17 12:15:56;;;;;;;9.57;8.05;;;23.70;99.90;;;;;;6015183;29;88985;-64
2022/10/17 12:19:27;;;;;;;10.27;9.27;;;23.70;99.90;;;;;;6013332;29;88599;-64
2022/10/17 12:22:30;;;;;;;9.38;8.48;;;23.70;99.90;;;;;;6014682;29;88922;-64
2022/10/17 12:25:38;;;;;;;8.65;7.85;;;23.70;99.90;;;;;;6023084;29;88376;-64
2022/10/17 12:28:43;;;;;;;9.05;8.25;;;23.70;99.90;;;;;;6014425;29;91154;-64
2022/10/17 12:31:45;;;;;;;8.85;8.05;;;23.70;99.90;;;;;;6015686;29;88066;-64
2022/10/17 12:34:54;;;;;;;9.50;8.70;;;23.70;99.90;;;;;;6014167;29;90521;-64
2022/10/17 12:38:30;;;;;;;9.57;8.57;;;23.70;99.90;;;;;;6008183;29;89048;-64
2022/10/17 12:41:53;;;;;;;9.02;8.13;;;23.70;99.90;;;;;;6014428;29;89108;-64
2022/10/17 12:44:55;;;;;;;9.23;8.43;;;23.70;99.90;;;;;;6021146;29;89116;-64
2022/10/17 12:47:57;;;;;;;8.70;7.90;;;23.70;99.90;;;;;;6014214;29;88007;-64
2022/10/17 12:51:05;;;;;;;9.80;8.85;;;23.70;99.90;;;;;;6014201;29;88938;-64
2022/10/17 12:54:12;;;;;;;8.82;8.02;;;23.70;99.90;;;;;;6013210;29;89047;-64
2022/10/17 12:57:21;;;;;;;8.93;8.02;;;23.70;99.90;;;;;;6013630;29;87423;-64
2022/10/17 13:00:29;;;;;;;9.27;8.38;;;23.70;99.90;;;;;;6019728;29;89056;-64
2022/10/17 13:03:34;;;;;;;9.38;8.45;;;23.70;99.90;;;;;;6024185;29;89157;-64
2022/10/17 13:06:39;;;;;;;9.15;8.25;;;23.70;99.90;;;;;;6013157;29;90090;-64
2022/10/17 13:09:44;;;;;;;9.63;8.63;;;23.70;99.90;;;;;;6015338;29;89415;-64
2022/10/17 13:12:47;;;;;;;9.50;8.50;;;23.70;99.90;;;;;;6013999;29;89013;-64
2022/10/17 13:15:50;;;;;;;9.43;8.48;;;23.70;99.90;;;;;;6012931;29;89257;-64
2022/10/17 13:18:53;;;;;;;9.35;8.45;;;23.70;99.90;;;;;;6014764;29;89200;-64
2022/10/17 13:21:59;;;;;;;8.98;8.07;;;23.70;99.90;;;;;;6015198;29;88194;-64
2022/10/17 13:25:13;;;;;;;9.05;8.25;;;23.70;99.90;;;;;;6013344;29;88130;-64
2022/10/17 13:28:16;;;;;;;9.23;8.43;;;23.70;99.90;;;;;;6015084;29;88368;-64
2022/10/17 13:31:29;;;;;;;9.23;8.43;;;23.70;99.90;;;;;;6014491;29;89326;-64
2022/10/17 13:34:33;;;;;;;9.00;8.20;;;23.70;99.90;;;;;;6012025;29;89109;-64
2022/10/17 13:37:36;;;;;;;9.30;8.40;;;23.70;99.90;;;;;;6010145;29;90472;-64
2022/10/17 13:40:41;;;;;;;9.55;8.65;;;23.70;99.90;;;;;;6005383;29;89047;-64
2022/10/17 13:43:44;;;;;;;8.82;8.13;;;23.70;99.90;;;;;;6013468;29;89144;-64
2022/10/17 13:46:46;;;;;;;9.55;8.70;;;23.70;99.90;;;;;;6018013;29;88344;-64
2022/10/17 13:49:49;;;;;;;8.98;8.20;;;23.70;99.90;;;;;;6013781;29;89469;-64
2022/10/17 13:53:07;;;;;;;9.35;8.45;;;23.70;99.90;;;;;;6012157;29;89819;-64
2022/10/17 13:56:19;;;;;;;9.45;8.55;;;23.70;99.90;;;;;;6018197;29;89525;-64
2022/10/17 13:59:23;;;;;;;9.05;8.20;;;23.70;99.90;;;;;;6017963;29;88925;-64
2022/10/17 14:02:27;;;;;;;8.88;8.07;;;23.70;99.90;;;;;;6031259;29;89154;-64
2022/10/17 14:05:29;;;;;;;9.43;8.55;;;23.70;99.90;;;;;;6015690;29;89064;-65
2022/10/17 14:08:33;;;;;;;10.10;9.10;;;23.70;99.90;;;;;;6017595;29;90136;-64
2022/10/17 14:11:39;;;;;;;9.10;8.30;;;23.70;99.90;;;;;;6018564;28;89115;-64
2022/10/17 14:14:48;;;;;;;8.43;7.63;;;23.70;99.90;;;;;;6016657;29;89001;-64
2022/10/17 14:17:56;;;;;;;9.45;8.55;;;23.70;99.90;;;;;;6015859;29;89160;-64
2022/10/17 14:20:58;;;;;;;9.05;8.15;;;23.70;99.90;;;;;;6008267;29;89445;-64
2022/10/17 14:24:26;;;;;;;9.65;8.75;;;23.70;99.90;;;;;;6013471;29;89264;-64
2022/10/17 14:27:33;;;;;;;8.82;8.02;;;23.70;99.90;;;;;;6010605;29;89391;-64
2022/10/17 14:30:37;;;;;;;9.00;8.20;;;23.70;99.90;;;;;;6021889;29;88453;-64
2022/10/17 14:33:44;;;;;;;9.43;8.55;;;23.70;99.90;;;;;;6015746;29;89656;-65
2022/10/17 14:36:50;;;;;;;8.85;8.05;;;23.70;99.90;;;;;;6017063;29;89181;-64
2022/10/17 14:39:53;;;;;;;8.77;8.07;;;23.70;99.90;;;;;;6016453;29;89079;-64
2022/10/17 14:42:59;;;;;;;9.38;8.48;;;23.70;99.90;;;;;;6011722;29;88322;-64
2022/10/17 14:46:02;;;;;;;9.05;8.20;;;23.70;99.90;;;;;;6018608;29;89107;-64
2022/10/17 14:49:06;;;;;;;8.77;7.97;;;23.70;99.90;;;;;;6019726;29;89859;-64
2022/10/17 14:52:29;;;;;;;8.45;7.70;;;23.70;99.90;;;;;;6016851;29;89056;-64
2022/10/17 14:55:33;;;;;;;9.13;8.32;;;23.70;99.90;;;;;;6015929;29;90603;-64
2022/10/17 14:58:36;;;;;;;8.38;7.68;;;23.70;99.90;;;;;;6017082;29;89063;-64
2022/10/17 15:01:38;;;;;;;8.93;8.07;;;23.70;99.90;;;;;;6023248;29;89661;-64
2022/10/17 15:04:41;;;;;;;9.52;8.63;;;23.70;99.90;;;;;;6014607;29;88022;-65
2022/10/17 15:07:43;;;;;;;8.43;7.72;;;23.70;99.90;;;;;;6014106;29;89470;-65
2022/10/17 15:10:47;;;;;;;8.98;8.18;;;23.70;99.90;;;;;;6013313;29;90107;-65
2022/10/17 15:13:50;;;;;;;9.05;8.25;;;23.70;99.90;;;;;;6002262;29;89013;-65
2022/10/17 15:16:52;;;;;;;8.88;8.07;;;23.70;99.90;;;;;;6010901;29;89061;-65
2022/10/17 15:19:55;;;;;;;8.88;8.10;;;23.70;99.90;;;;;;6012722;29;89115;-65
2022/10/17 15:22:58;;;;;;;8.93;8.13;;;23.70;99.90;;;;;;6013823;29;89018;-65
2022/10/17 15:26:00;;;;;;;9.02;8.23;;;23.70;99.90;;;;;;6014229;29;89117;-65
2022/10/17 15:29:04;;;;;;;8.98;8.18;;;23.70;99.90;;;;;;6012468;29;89231;-64
2022/10/17 15:32:06;;;;;;;9.70;8.70;;;23.70;99.90;;;;;;6014405;29;88441;-65
2022/10/17 15:35:09;;;;;;;9.18;8.23;;;23.70;99.90;;;;;;6013790;29;89498;-65
2022/10/17 15:38:12;;;;;;;9.50;8.60;;;23.70;99.90;;;;;;6012523;29;88011;-65
2022/10/17 15:41:15;;;;;;;8.95;8.05;;;23.70;99.90;;;;;;6012341;29;90130;-65
2022/10/17 15:44:18;;;;;;;9.55;8.60;;;23.70;99.90;;;;;;6023610;29;89118;-64
2022/10/17 15:47:25;;;;;;;9.43;8.48;;;23.70;99.90;;;;;;6013183;29;88130;-64
2022/10/17 15:50:29;;;;;;;9.55;8.65;;;23.70;99.90;;;;;;6012832;29;89593;-65
2022/10/17 15:53:31;;;;;;;9.25;8.45;;;23.70;99.90;;;;;;6013337;29;89185;-64
2022/10/17 15:56:35;;;;;;;9.07;8.27;;;23.70;99.90;;;;;;6012663;29;88044;-65